Terminal Aerodrome Forecast
Issued by NWS Lake Charles, LA

Home | Current Version | Previous Version | Text Only | Print | Product List | Glossary On
Versions: 1 2 3 4 5 6 7 8 9 10 11 12 13 14 15 16 17 18
000
FTUS44 KLCH 201100
TAFLCH
TAF
KLCH 201132Z 2012/2112 18005KT P6SM FEW035
      TEMPO 2012/2013 5SM BR
     FM201700 18006KT P6SM VCSH SCT025 SCT050 BKN100
      TEMPO 2018/2022 VRB15G20KT 3SM -TSRA BKN025CB
     FM202300 18009KT P6SM BKN250=

USA.gov is the U.S. government's official web portal to all federal, state and local government web resources and services.